sensor_id;sensor_type;location;lat;lon;timestamp;pressure;altitude;pressure_sealevel;temperature;humidity
9225;BME280;4647;48.072;11.616;2023-05-01T00:00:11;95143.69;;;7.86;69.89
9225;BME280;4647;48.072;11.616;2023-05-01T00:02:40;95153.66;;;7.96;69.71
9225;BME280;4647;48.072;11.616;2023-05-01T00:05:09;95144.03;;;7.91;69.91
9225;BME280;4647;48.072;11.616;2023-05-01T00:07:40;95144.41;;;7.93;69.88
9225;BME280;4647;48.072;11.616;2023-05-01T00:10:15;95141.72;;;7.93;69.60
9225;BME280;4647;48.072;11.616;2023-05-01T00:12:47;95141.34;;;7.91;69.97
9225;BME280;4647;48.072;11.616;2023-05-01T00:15:16;95127.91;;;7.84;70.03
9225;BME280;4647;48.072;11.616;2023-05-01T00:17:46;95129.84;;;7.80;70.63
9225;BME280;4647;48.072;11.616;2023-05-01T00:20:17;95116.44;;;7.69;70.59
9225;BME280;4647;48.072;11.616;2023-05-01T00:22:47;95133.00;;;7.72;70.89
9225;BME280;4647;48.072;11.616;2023-05-01T00:25:21;95123.75;;;7.73;71.23
9225;BME280;4647;48.072;11.616;2023-05-01T00:27:50;95125.72;;;7.65;71.22
9225;BME280;4647;48.072;11.616;2023-05-01T00:30:21;95116.00;;;7.82;70.32
9225;BME280;4647;48.072;11.616;2023-05-01T00:32:53;95122.53;;;7.77;70.61
9225;BME280;4647;48.072;11.616;2023-05-01T00:35:28;95118.72;;;7.75;70.60
9225;BME280;4647;48.072;11.616;2023-05-01T00:37:58;95118.03;;;7.63;70.98
9225;BME280;4647;48.072;11.616;2023-05-01T00:40:46;95112.22;;;7.65;71.27
9225;BME280;4647;48.072;11.616;2023-05-01T00:43:18;95113.00;;;7.65;70.95
9225;BME280;4647;48.072;11.616;2023-05-01T00:45:48;95111.84;;;7.66;70.79
9225;BME280;4647;48.072;11.616;2023-05-01T00:48:17;95107.25;;;7.63;70.64
9225;BME280;4647;48.072;11.616;2023-05-01T00:50:54;95100.69;;;7.64;70.42
9225;BME280;4647;48.072;11.616;2023-05-01T00:53:29;95101.44;;;7.65;70.24
9225;BME280;4647;48.072;11.616;2023-05-01T00:56:03;95106.06;;;7.64;70.23
9225;BME280;4647;48.072;11.616;2023-05-01T00:58:46;95097.66;;;7.59;70.65
9225;BME280;4647;48.072;11.616;2023-05-01T01:01:19;95099.19;;;7.60;70.64
9225;BME280;4647;48.072;11.616;2023-05-01T01:03:56;95098.41;;;7.56;70.84
9225;BME280;4647;48.072;11.616;2023-05-01T01:06:36;95094.22;;;7.48;71.17
9225;BME280;4647;48.072;11.616;2023-05-01T01:09:16;95085.41;;;7.40;71.39
9225;BME280;4647;48.072;11.616;2023-05-01T01:12:00;95091.97;;;7.39;71.70
9225;BME280;4647;48.072;11.616;2023-05-01T01:14:41;95085.06;;;7.34;71.95
9225;BME280;4647;48.072;11.616;2023-05-01T01:17:18;95093.13;;;7.38;71.92
9225;BME280;4647;48.072;11.616;2023-05-01T01:20:11;95083.19;;;7.24;72.49
9225;BME280;4647;48.072;11.616;2023-05-01T01:22:50;95094.00;;;7.17;72.71
9225;BME280;4647;48.072;11.616;2023-05-01T01:25:54;95085.16;;;7.13;72.92
9225;BME280;4647;48.072;11.616;2023-05-01T01:28:44;95083.28;;;6.99;73.62
9225;BME280;4647;48.072;11.616;2023-05-01T01:31:20;95085.63;;;6.94;73.79
9225;BME280;4647;48.072;11.616;2023-05-01T01:34:21;95080.66;;;6.89;74.01
9225;BME280;4647;48.072;11.616;2023-05-01T01:36:58;95082.56;;;6.88;74.00
9225;BME280;4647;48.072;11.616;2023-05-01T01:39:36;95080.28;;;6.80;74.19
9225;BME280;4647;48.072;11.616;2023-05-01T01:42:12;95074.56;;;6.63;75.04
9225;BME280;4647;48.072;11.616;2023-05-01T01:44:48;95052.72;;;6.40;75.66
9225;BME280;4647;48.072;11.616;2023-05-01T01:47:19;95077.28;;;6.53;75.85
9225;BME280;4647;48.072;11.616;2023-05-01T01:49:52;95063.47;;;6.47;76.03
9225;BME280;4647;48.072;11.616;2023-05-01T01:52:25;95067.66;;;6.55;75.82
9225;BME280;4647;48.072;11.616;2023-05-01T01:55:02;95066.50;;;6.56;75.64
9225;BME280;4647;48.072;11.616;2023-05-01T01:57:36;95070.31;;;6.62;75.35
9225;BME280;4647;48.072;11.616;2023-05-01T02:00:09;95063.81;;;6.53;75.61
9225;BME280;4647;48.072;11.616;2023-05-01T02:02:46;95056.56;;;6.42;75.99
9225;BME280;4647;48.072;11.616;2023-05-01T02:05:20;95059.63;;;6.34;76.82
9225;BME280;4647;48.072;11.616;2023-05-01T02:07:49;95060.78;;;6.40;76.51
9225;BME280;4647;48.072;11.616;2023-05-01T02:10:19;95052.34;;;6.24;77.31
9225;BME280;4647;48.072;11.616;2023-05-01T02:12:54;95048.91;;;6.23;77.67
9225;BME280;4647;48.072;11.616;2023-05-01T02:15:25;95050.03;;;6.26;77.88
9225;BME280;4647;48.072;11.616;2023-05-01T02:17:56;95048.53;;;6.18;78.06
9225;BME280;4647;48.072;11.616;2023-05-01T02:20:35;95013.97;;;5.98;78.12
9225;BME280;4647;48.072;11.616;2023-05-01T02:23:08;95040.06;;;6.19;78.08
9225;BME280;4647;48.072;11.616;2023-05-01T02:25:41;95036.59;;;6.15;77.99
9225;BME280;4647;48.072;11.616;2023-05-01T02:28:14;95042.72;;;6.30;77.51
9225;BME280;4647;48.072;11.616;2023-05-01T02:30:45;95030.09;;;6.16;78.15
9225;BME280;4647;48.072;11.616;2023-05-01T02:33:16;95032.75;;;6.12;78.18
9225;BME280;4647;48.072;11.616;2023-05-01T02:35:51;95020.50;;;5.97;78.10
9225;BME280;4647;48.072;11.616;2023-05-01T02:38:25;95033.94;;;6.04;78.34
9225;BME280;4647;48.072;11.616;2023-05-01T02:41:01;95028.56;;;5.97;78.55
9225;BME280;4647;48.072;11.616;2023-05-01T02:43:31;95019.72;;;5.90;78.78
9225;BME280;4647;48.072;11.616;2023-05-01T02:46:02;95027.78;;;5.90;78.98
9225;BME280;4647;48.072;11.616;2023-05-01T02:48:32;95017.78;;;5.86;79.10
9225;BME280;4647;48.072;11.616;2023-05-01T02:51:05;95022.81;;;5.95;78.95
9225;BME280;4647;48.072;11.616;2023-05-01T02:53:38;95020.50;;;5.97;79.04
9225;BME280;4647;48.072;11.616;2023-05-01T02:56:07;95015.88;;;5.91;79.29
9225;BME280;4647;48.072;11.616;2023-05-01T02:58:40;95022.78;;;5.81;79.57
9225;BME280;4647;48.072;11.616;2023-05-01T03:01:23;95009.72;;;5.86;79.87
9225;BME280;4647;48.072;11.616;2023-05-01T03:03:57;95015.50;;;5.92;79.44
9225;BME280;4647;48.072;11.616;2023-05-01T03:06:30;95004.75;;;5.92;79.25
9225;BME280;4647;48.072;11.616;2023-05-01T03:09:02;95012.06;;;5.92;79.09
9225;BME280;4647;48.072;11.616;2023-05-01T03:11:33;95014.69;;;5.88;79.14
9225;BME280;4647;48.072;11.616;2023-05-01T03:14:02;95012.44;;;5.97;78.84
9225;BME280;4647;48.072;11.616;2023-05-01T03:16:32;95004.72;;;5.85;79.43
9225;BME280;4647;48.072;11.616;2023-05-01T03:19:10;95006.25;;;5.86;79.31
9225;BME280;4647;48.072;11.616;2023-05-01T03:21:47;95000.50;;;5.77;79.51
9225;BME280;4647;48.072;11.616;2023-05-01T03:24:20;94998.19;;;5.79;79.60
9225;BME280;4647;48.072;11.616;2023-05-01T03:26:57;95008.97;;;5.75;79.79
9225;BME280;4647;48.072;11.616;2023-05-01T03:29:34;95008.94;;;5.79;79.72
9225;BME280;4647;48.072;11.616;2023-05-01T03:32:13;95014.34;;;5.75;80.07
9225;BME280;4647;48.072;11.616;2023-05-01T03:35:10;95004.34;;;5.79;79.87
9225;BME280;4647;48.072;11.616;2023-05-01T03:38:07;94990.94;;;5.69;79.81
9225;BME280;4647;48.072;11.616;2023-05-01T03:40:51;95009.75;;;5.69;80.28
9225;BME280;4647;48.072;11.616;2023-05-01T03:43:29;95007.81;;;5.69;80.46
9225;BME280;4647;48.072;11.616;2023-05-01T03:46:00;95004.34;;;5.76;80.01
9225;BME280;4647;48.072;11.616;2023-05-01T03:48:32;95000.13;;;5.82;79.87
9225;BME280;4647;48.072;11.616;2023-05-01T03:51:08;95000.50;;;5.91;79.41
9225;BME280;4647;48.072;11.616;2023-05-01T03:53:41;95005.88;;;5.91;79.15
9225;BME280;4647;48.072;11.616;2023-05-01T03:56:11;94998.97;;;5.76;79.64
9225;BME280;4647;48.072;11.616;2023-05-01T03:58:50;94998.97;;;5.76;79.68
9225;BME280;4647;48.072;11.616;2023-05-01T04:01:19;94999.72;;;5.80;79.32
9225;BME280;4647;48.072;11.616;2023-05-01T04:03:50;94992.81;;;5.79;79.60
9225;BME280;4647;48.072;11.616;2023-05-01T04:06:20;94988.97;;;5.83;80.22
9225;BME280;4647;48.072;11.616;2023-05-01T04:08:55;94982.84;;;6.04;79.73
9225;BME280;4647;48.072;11.616;2023-05-01T04:11:24;94985.13;;;6.13;79.12
9225;BME280;4647;48.072;11.616;2023-05-01T04:13:59;94986.25;;;6.12;78.90
9225;BME280;4647;48.072;11.616;2023-05-01T04:16:50;94986.66;;;6.18;78.76
9225;BME280;4647;48.072;11.616;2023-05-01T04:19:22;94994.72;;;6.14;78.85
9225;BME280;4647;48.072;11.616;2023-05-01T04:21:52;94990.50;;;6.20;78.83
9225;BME280;4647;48.072;11.616;2023-05-01T04:24:36;94995.47;;;6.25;78.95
9225;BME280;4647;48.072;11.616;2023-05-01T04:27:05;94994.72;;;6.18;79.26
9225;BME280;4647;48.072;11.616;2023-05-01T04:29:41;94991.19;;;6.45;78.87
9225;BME280;4647;48.072;11.616;2023-05-01T04:32:10;94983.81;;;6.60;78.55
9225;BME280;4647;48.072;11.616;2023-05-01T04:34:38;94988.34;;;6.81;77.51
9225;BME280;4647;48.072;11.616;2023-05-01T04:37:12;94989.38;;;7.05;76.57
9225;BME280;4647;48.072;11.616;2023-05-01T04:39:48;94985.38;;;7.34;75.56
9225;BME280;4647;48.072;11.616;2023-05-01T04:42:17;94981.75;;;7.52;74.19
9225;BME280;4647;48.072;11.616;2023-05-01T04:44:50;94992.78;;;7.72;73.23
9225;BME280;4647;48.072;11.616;2023-05-01T04:47:20;94984.31;;;7.69;72.98
9225;BME280;4647;48.072;11.616;2023-05-01T04:49:51;94977.38;;;7.68;72.77
9225;BME280;4647;48.072;11.616;2023-05-01T04:52:20;94990.69;;;7.90;72.54
9225;BME280;4647;48.072;11.616;2023-05-01T04:54:59;94992.06;;;8.09;72.12
9225;BME280;4647;48.072;11.616;2023-05-01T04:57:28;94989.63;;;8.21;71.61
9225;BME280;4647;48.072;11.616;2023-05-01T05:00:06;94985.66;;;8.37;71.01
9225;BME280;4647;48.072;11.616;2023-05-01T05:02:47;94985.97;;;8.42;70.41
9225;BME280;4647;48.072;11.616;2023-05-01T05:05:20;94987.63;;;8.67;69.33
9225;BME280;4647;48.072;11.616;2023-05-01T05:07:50;94966.00;;;8.67;69.01
9225;BME280;4647;48.072;11.616;2023-05-01T05:10:22;94989.88;;;9.02;68.21
9225;BME280;4647;48.072;11.616;2023-05-01T05:12:51;94989.97;;;9.26;67.44
9225;BME280;4647;48.072;11.616;2023-05-01T05:15:29;94990.19;;;9.35;66.94
9225;BME280;4647;48.072;11.616;2023-05-01T05:18:02;94989.94;;;9.52;66.44
9225;BME280;4647;48.072;11.616;2023-05-01T05:20:40;94996.13;;;9.53;65.89
9225;BME280;4647;48.072;11.616;2023-05-01T05:23:12;94994.31;;;9.70;65.53
9225;BME280;4647;48.072;11.616;2023-05-01T05:25:44;95001.84;;;10.05;64.62
9225;BME280;4647;48.072;11.616;2023-05-01T05:28:18;94992.56;;;9.83;64.79
9225;BME280;4647;48.072;11.616;2023-05-01T05:30:56;94998.72;;;10.07;64.66
9225;BME280;4647;48.072;11.616;2023-05-01T05:33:31;95004.84;;;10.34;63.13
9225;BME280;4647;48.072;11.616;2023-05-01T05:36:09;95001.44;;;10.30;62.95
9225;BME280;4647;48.072;11.616;2023-05-01T05:38:58;95000.66;;;10.53;62.87
9225;BME280;4647;48.072;11.616;2023-05-01T05:41:34;95012.38;;;10.86;61.61
9225;BME280;4647;48.072;11.616;2023-05-01T05:44:05;95001.41;;;10.93;61.29
9225;BME280;4647;48.072;11.616;2023-05-01T05:46:40;95003.78;;;10.91;61.20
9225;BME280;4647;48.072;11.616;2023-05-01T05:49:22;95007.69;;;10.90;61.54
9225;BME280;4647;48.072;11.616;2023-05-01T05:51:57;95003.56;;;11.02;61.52
9225;BME280;4647;48.072;11.616;2023-05-01T05:54:28;95003.25;;;11.52;60.64
9225;BME280;4647;48.072;11.616;2023-05-01T05:57:02;95009.53;;;11.65;59.23
9225;BME280;4647;48.072;11.616;2023-05-01T05:59:48;95013.88;;;11.63;58.75
9225;BME280;4647;48.072;11.616;2023-05-01T06:02:21;95006.50;;;11.80;58.16
9225;BME280;4647;48.072;11.616;2023-05-01T06:04:52;95011.03;;;11.86;57.53
9225;BME280;4647;48.072;11.616;2023-05-01T06:07:24;95008.03;;;11.97;57.28
9225;BME280;4647;48.072;11.616;2023-05-01T06:10:05;95013.91;;;11.95;56.94
9225;BME280;4647;48.072;11.616;2023-05-01T06:12:37;95018.06;;;11.84;57.72
9225;BME280;4647;48.072;11.616;2023-05-01T06:15:11;95004.91;;;11.98;57.60
9225;BME280;4647;48.072;11.616;2023-05-01T06:17:46;94999.28;;;12.22;56.39
9225;BME280;4647;48.072;11.616;2023-05-01T06:20:16;95004.94;;;12.44;55.61
9225;BME280;4647;48.072;11.616;2023-05-01T06:22:54;95011.69;;;12.52;54.96
9225;BME280;4647;48.072;11.616;2023-05-01T06:25:31;95007.97;;;12.75;54.33
9225;BME280;4647;48.072;11.616;2023-05-01T06:28:05;95007.47;;;12.51;54.83
9225;BME280;4647;48.072;11.616;2023-05-01T06:30:42;95010.91;;;12.39;54.71
9225;BME280;4647;48.072;11.616;2023-05-01T06:33:12;95007.31;;;12.71;54.41
9225;BME280;4647;48.072;11.616;2023-05-01T06:35:41;94998.72;;;12.72;53.54
9225;BME280;4647;48.072;11.616;2023-05-01T06:38:10;94993.63;;;13.03;53.04
9225;BME280;4647;48.072;11.616;2023-05-01T06:40:39;95007.41;;;12.96;53.07
9225;BME280;4647;48.072;11.616;2023-05-01T06:43:16;95005.88;;;12.95;53.65
9225;BME280;4647;48.072;11.616;2023-05-01T06:45:45;95018.53;;;13.02;55.04
9225;BME280;4647;48.072;11.616;2023-05-01T06:48:14;95009.41;;;13.08;55.37
9225;BME280;4647;48.072;11.616;2023-05-01T06:50:45;95014.50;;;13.06;55.26
9225;BME280;4647;48.072;11.616;2023-05-01T06:53:27;95012.06;;;12.83;56.45
9225;BME280;4647;48.072;11.616;2023-05-01T06:55:57;94993.84;;;13.09;55.77
9225;BME280;4647;48.072;11.616;2023-05-01T06:58:34;95003.19;;;13.08;55.54
9225;BME280;4647;48.072;11.616;2023-05-01T07:01:04;94979.84;;;12.23;57.52
9225;BME280;4647;48.072;11.616;2023-05-01T07:03:34;95022.16;;;12.82;57.26
9225;BME280;4647;48.072;11.616;2023-05-01T07:06:05;95014.38;;;12.68;56.90
9225;BME280;4647;48.072;11.616;2023-05-01T07:08:34;95020.44;;;12.59;57.45
9225;BME280;4647;48.072;11.616;2023-05-01T07:11:02;95016.03;;;13.07;56.22
9225;BME280;4647;48.072;11.616;2023-05-01T07:13:39;95012.81;;;12.83;57.03
9225;BME280;4647;48.072;11.616;2023-05-01T07:16:10;95016.78;;;13.08;56.90
9225;BME280;4647;48.072;11.616;2023-05-01T07:18:39;95010.78;;;13.29;55.49
9225;BME280;4647;48.072;11.616;2023-05-01T07:21:08;95012.19;;;13.46;55.06
9225;BME280;4647;48.072;11.616;2023-05-01T07:23:38;95006.88;;;13.56;55.16
9225;BME280;4647;48.072;11.616;2023-05-01T07:26:08;95010.44;;;13.65;55.18
9225;BME280;4647;48.072;11.616;2023-05-01T07:28:42;95010.44;;;14.03;53.76
9225;BME280;4647;48.072;11.616;2023-05-01T07:31:11;95010.81;;;14.27;53.12
9225;BME280;4647;48.072;11.616;2023-05-01T07:33:39;95011.22;;;14.51;52.24
9225;BME280;4647;48.072;11.616;2023-05-01T07:36:13;95012.66;;;14.43;51.82
9225;BME280;4647;48.072;11.616;2023-05-01T07:38:45;95013.94;;;14.38;52.49
9225;BME280;4647;48.072;11.616;2023-05-01T07:41:16;95012.75;;;14.39;51.87
9225;BME280;4647;48.072;11.616;2023-05-01T07:43:52;95011.22;;;14.51;51.85
9225;BME280;4647;48.072;11.616;2023-05-01T07:46:31;95009.84;;;14.68;51.21
9225;BME280;4647;48.072;11.616;2023-05-01T07:49:01;95014.03;;;14.82;51.18
9225;BME280;4647;48.072;11.616;2023-05-01T07:51:32;95017.63;;;14.57;51.61
9225;BME280;4647;48.072;11.616;2023-05-01T07:54:01;95012.25;;;14.66;51.08
9225;BME280;4647;48.072;11.616;2023-05-01T07:56:30;95010.81;;;14.27;51.57
9225;BME280;4647;48.072;11.616;2023-05-01T07:59:01;95026.66;;;13.43;53.90
9225;BME280;4647;48.072;11.616;2023-05-01T08:01:30;95022.31;;;13.46;54.79
9225;BME280;4647;48.072;11.616;2023-05-01T08:03:59;95022.13;;;13.78;54.71
9225;BME280;4647;48.072;11.616;2023-05-01T08:06:35;95024.94;;;13.49;55.47
9225;BME280;4647;48.072;11.616;2023-05-01T08:09:03;95017.00;;;13.55;55.79
9225;BME280;4647;48.072;11.616;2023-05-01T08:11:32;95008.72;;;13.59;56.09
9225;BME280;4647;48.072;11.616;2023-05-01T08:14:04;95014.00;;;13.24;58.19
9225;BME280;4647;48.072;11.616;2023-05-01T08:16:36;95027.63;;;12.95;58.56
9225;BME280;4647;48.072;11.616;2023-05-01T08:19:05;95029.81;;;13.29;58.62
9225;BME280;4647;48.072;11.616;2023-05-01T08:21:35;95029.56;;;13.24;58.96
9225;BME280;4647;48.072;11.616;2023-05-01T08:24:08;95030.88;;;12.90;60.05
9225;BME280;4647;48.072;11.616;2023-05-01T08:26:38;95038.41;;;12.99;59.89
9225;BME280;4647;48.072;11.616;2023-05-01T08:29:10;95038.56;;;13.08;59.86
9225;BME280;4647;48.072;11.616;2023-05-01T08:31:38;95048.06;;;12.87;60.68
9225;BME280;4647;48.072;11.616;2023-05-01T08:34:10;95038.47;;;12.82;61.30
9225;BME280;4647;48.072;11.616;2023-05-01T08:36:38;95041.53;;;12.84;61.81
9225;BME280;4647;48.072;11.616;2023-05-01T08:39:07;95035.28;;;13.13;61.22
9225;BME280;4647;48.072;11.616;2023-05-01T08:41:36;95036.06;;;13.55;60.28
9225;BME280;4647;48.072;11.616;2023-05-01T08:44:12;95042.47;;;13.61;60.07
9225;BME280;4647;48.072;11.616;2023-05-01T08:46:46;95048.66;;;13.36;60.69
9225;BME280;4647;48.072;11.616;2023-05-01T08:49:16;95048.47;;;13.56;60.12
9225;BME280;4647;48.072;11.616;2023-05-01T08:51:52;95036.13;;;13.26;61.05
9225;BME280;4647;48.072;11.616;2023-05-01T08:54:28;95047.63;;;13.17;61.28
9225;BME280;4647;48.072;11.616;2023-05-01T08:57:01;95050.41;;;13.14;61.71
9225;BME280;4647;48.072;11.616;2023-05-01T08:59:33;95046.16;;;13.42;61.96
9225;BME280;4647;48.072;11.616;2023-05-01T09:02:05;95048.81;;;13.96;60.15
9225;BME280;4647;48.072;11.616;2023-05-01T09:04:35;95053.25;;;13.65;60.17
9225;BME280;4647;48.072;11.616;2023-05-01T09:07:04;95051.94;;;13.57;61.07
9225;BME280;4647;48.072;11.616;2023-05-01T09:09:33;95060.13;;;14.07;60.19
9225;BME280;4647;48.072;11.616;2023-05-01T09:12:10;95059.16;;;13.76;60.90
9225;BME280;4647;48.072;11.616;2023-05-01T09:14:44;95066.28;;;13.44;61.96
9225;BME280;4647;48.072;11.616;2023-05-01T09:17:14;95060.44;;;13.71;61.83
9225;BME280;4647;48.072;11.616;2023-05-01T09:19:44;95066.81;;;13.27;62.37
9225;BME280;4647;48.072;11.616;2023-05-01T09:22:18;95066.72;;;13.30;63.19
9225;BME280;4647;48.072;11.616;2023-05-01T09:24:47;95063.06;;;13.49;62.14
9225;BME280;4647;48.072;11.616;2023-05-01T09:27:16;95072.19;;;13.14;63.61
9225;BME280;4647;48.072;11.616;2023-05-01T09:29:56;95068.47;;;13.08;64.51
9225;BME280;4647;48.072;11.616;2023-05-01T09:32:26;95068.41;;;12.95;64.26
9225;BME280;4647;48.072;11.616;2023-05-01T09:35:08;95076.44;;;12.24;67.14
9225;BME280;4647;48.072;11.616;2023-05-01T09:37:37;95071.25;;;12.46;66.29
9225;BME280;4647;48.072;11.616;2023-05-01T09:40:09;95084.25;;;12.39;66.97
9225;BME280;4647;48.072;11.616;2023-05-01T09:42:40;95073.72;;;12.57;66.22
9225;BME280;4647;48.072;11.616;2023-05-01T09:45:19;95079.63;;;12.97;65.41
9225;BME280;4647;48.072;11.616;2023-05-01T09:47:48;95071.59;;;12.77;64.80
9225;BME280;4647;48.072;11.616;2023-05-01T09:50:30;95080.59;;;12.45;66.56
9225;BME280;4647;48.072;11.616;2023-05-01T09:53:00;95080.00;;;12.21;68.07
9225;BME280;4647;48.072;11.616;2023-05-01T09:55:31;95081.59;;;12.03;68.33
9225;BME280;4647;48.072;11.616;2023-05-01T09:58:01;95084.25;;;12.39;67.51
9225;BME280;4647;48.072;11.616;2023-05-01T10:00:46;95095.03;;;12.10;67.99
9225;BME280;4647;48.072;11.616;2023-05-01T10:03:15;95087.09;;;11.83;68.33
9225;BME280;4647;48.072;11.616;2023-05-01T10:05:47;95090.38;;;11.74;69.85
9225;BME280;4647;48.072;11.616;2023-05-01T10:08:18;95098.34;;;11.45;70.69
9225;BME280;4647;48.072;11.616;2023-05-01T10:10:58;95093.53;;;11.53;72.30
9225;BME280;4647;48.072;11.616;2023-05-01T10:13:29;95094.84;;;11.84;72.59
9225;BME280;4647;48.072;11.616;2023-05-01T10:16:03;95092.22;;;12.46;71.03
9225;BME280;4647;48.072;11.616;2023-05-01T10:18:36;95086.25;;;12.96;70.68
9225;BME280;4647;48.072;11.616;2023-05-01T10:21:12;95085.13;;;12.81;69.97
9225;BME280;4647;48.072;11.616;2023-05-01T10:23:43;95092.91;;;12.34;69.54
9225;BME280;4647;48.072;11.616;2023-05-01T10:26:17;95089.00;;;12.18;71.27
9225;BME280;4647;48.072;11.616;2023-05-01T10:28:52;95091.38;;;11.64;72.86
9225;BME280;4647;48.072;11.616;2023-05-01T10:31:31;95077.03;;;11.83;72.33
9225;BME280;4647;48.072;11.616;2023-05-01T10:34:07;95073.25;;;11.77;71.60
9225;BME280;4647;48.072;11.616;2023-05-01T10:36:46;95091.03;;;11.98;71.58
9225;BME280;4647;48.072;11.616;2023-05-01T10:42:31;95078.28;;;11.79;73.13
9225;BME280;4647;48.072;11.616;2023-05-01T10:48:06;95090.84;;;11.33;73.62
9225;BME280;4647;48.072;11.616;2023-05-01T10:53:39;95087.31;;;10.96;76.34
9225;BME280;4647;48.072;11.616;2023-05-01T10:56:41;95087.03;;;10.91;77.05
9225;BME280;4647;48.072;11.616;2023-05-01T10:59:11;95079.59;;;10.75;77.59
9225;BME280;4647;48.072;11.616;2023-05-01T11:01:44;95075.63;;;10.99;77.22
9225;BME280;4647;48.072;11.616;2023-05-01T11:04:50;95076.31;;;11.03;76.86
9225;BME280;4647;48.072;11.616;2023-05-01T11:07:23;95077.06;;;11.44;76.32
9225;BME280;4647;48.072;11.616;2023-05-01T11:09:54;95063.22;;;11.74;74.66
9225;BME280;4647;48.072;11.616;2023-05-01T11:12:53;95071.59;;;11.83;75.48
9225;BME280;4647;48.072;11.616;2023-05-01T11:15:33;95065.75;;;12.34;72.98
9225;BME280;4647;48.072;11.616;2023-05-01T11:18:08;95063.03;;;12.34;74.69
9225;BME280;4647;48.072;11.616;2023-05-01T11:20:53;95062.84;;;12.86;72.72
9225;BME280;4647;48.072;11.616;2023-05-01T11:23:25;95066.00;;;12.84;70.55
9225;BME280;4647;48.072;11.616;2023-05-01T11:26:11;95059.31;;;12.73;71.66
9225;BME280;4647;48.072;11.616;2023-05-01T11:28:49;95062.50;;;12.39;72.03
9225;BME280;4647;48.072;11.616;2023-05-01T11:31:24;95065.88;;;12.59;72.43
9225;BME280;4647;48.072;11.616;2023-05-01T11:34:00;95058.75;;;12.49;73.37
9225;BME280;4647;48.072;11.616;2023-05-01T11:36:50;95055.22;;;12.81;71.17
9225;BME280;4647;48.072;11.616;2023-05-01T11:39:28;95032.00;;;12.47;72.16
9225;BME280;4647;48.072;11.616;2023-05-01T11:42:10;95050.22;;;12.79;72.56
9225;BME280;4647;48.072;11.616;2023-05-01T11:44:41;95036.13;;;12.68;71.05
9225;BME280;4647;48.072;11.616;2023-05-01T11:47:09;95032.41;;;12.62;72.34
9225;BME280;4647;48.072;11.616;2023-05-01T11:49:40;95054.59;;;12.89;70.27
9225;BME280;4647;48.072;11.616;2023-05-01T11:52:12;95053.13;;;13.01;71.83
9225;BME280;4647;48.072;11.616;2023-05-01T11:54:46;95065.22;;;13.13;71.04
9225;BME280;4647;48.072;11.616;2023-05-01T11:57:16;95055.06;;;13.42;70.14
9225;BME280;4647;48.072;11.616;2023-05-01T11:59:46;95060.50;;;13.42;68.95
9225;BME280;4647;48.072;11.616;2023-05-01T12:02:19;95051.47;;;13.33;69.45
9225;BME280;4647;48.072;11.616;2023-05-01T12:04:48;95055.00;;;13.17;69.06
9225;BME280;4647;48.072;11.616;2023-05-01T12:07:26;95062.59;;;13.09;69.20
9225;BME280;4647;48.072;11.616;2023-05-01T12:10:02;95054.91;;;13.20;71.10
9225;BME280;4647;48.072;11.616;2023-05-01T12:12:32;95054.03;;;13.78;67.80
9225;BME280;4647;48.072;11.616;2023-05-01T12:15:07;95053.47;;;13.83;67.30
9225;BME280;4647;48.072;11.616;2023-05-01T12:17:36;95057.88;;;14.40;66.99
9225;BME280;4647;48.072;11.616;2023-05-01T12:20:13;95056.03;;;15.07;65.10
9225;BME280;4647;48.072;11.616;2023-05-01T12:22:52;95060.84;;;14.33;64.67
9225;BME280;4647;48.072;11.616;2023-05-01T12:25:20;95058.97;;;14.43;63.71
9225;BME280;4647;48.072;11.616;2023-05-01T12:27:49;95060.06;;;14.33;64.60
9225;BME280;4647;48.072;11.616;2023-05-01T12:30:23;95042.78;;;14.14;64.98
9225;BME280;4647;48.072;11.616;2023-05-01T12:32:57;95053.47;;;13.83;66.80
9225;BME280;4647;48.072;11.616;2023-05-01T12:35:30;95053.47;;;14.08;65.61
9225;BME280;4647;48.072;11.616;2023-05-01T12:38:09;95046.16;;;14.05;65.18
9225;BME280;4647;48.072;11.616;2023-05-01T12:40:49;95046.19;;;13.80;64.89
9225;BME280;4647;48.072;11.616;2023-05-01T12:43:27;95052.69;;;13.95;65.63
9225;BME280;4647;48.072;11.616;2023-05-01T12:45:58;95055.88;;;13.94;64.54
9225;BME280;4647;48.072;11.616;2023-05-01T12:48:28;95050.59;;;14.50;64.00
9225;BME280;4647;48.072;11.616;2023-05-01T12:51:02;95063.13;;;14.35;63.26
9225;BME280;4647;48.072;11.616;2023-05-01T12:53:42;95066.06;;;14.88;63.74
9225;BME280;4647;48.072;11.616;2023-05-01T12:56:29;95067.34;;;15.61;61.01
9225;BME280;4647;48.072;11.616;2023-05-01T12:59:04;95070.31;;;15.32;59.81
9225;BME280;4647;48.072;11.616;2023-05-01T13:01:33;95075.06;;;14.63;62.10
9225;BME280;4647;48.072;11.616;2023-05-01T13:04:07;95058.19;;;15.33;60.01
9225;BME280;4647;48.072;11.616;2023-05-01T13:06:38;95073.63;;;15.05;59.05
9225;BME280;4647;48.072;11.616;2023-05-01T13:09:14;95061.19;;;15.04;58.65
9225;BME280;4647;48.072;11.616;2023-05-01T13:12:04;95054.19;;;14.47;61.23
9225;BME280;4647;48.072;11.616;2023-05-01T13:14:38;95058.28;;;14.99;61.64
9225;BME280;4647;48.072;11.616;2023-05-01T13:17:10;95049.16;;;15.15;58.59
9225;BME280;4647;48.072;11.616;2023-05-01T13:19:39;95051.00;;;15.49;60.15
9225;BME280;4647;48.072;11.616;2023-05-01T13:22:08;95060.50;;;15.88;58.24
9225;BME280;4647;48.072;11.616;2023-05-01T13:24:41;95024.44;;;15.71;57.09
9225;BME280;4647;48.072;11.616;2023-05-01T13:27:11;95055.19;;;16.34;56.18
9225;BME280;4647;48.072;11.616;2023-05-01T13:29:40;95061.03;;;16.14;55.38
9225;BME280;4647;48.072;11.616;2023-05-01T13:32:13;95061.41;;;16.34;55.22
9225;BME280;4647;48.072;11.616;2023-05-01T13:34:42;95057.22;;;14.84;58.60
9225;BME280;4647;48.072;11.616;2023-05-01T13:37:18;95052.59;;;15.59;57.76
9225;BME280;4647;48.072;11.616;2023-05-01T13:39:59;95055.38;;;15.99;56.62
9225;BME280;4647;48.072;11.616;2023-05-01T13:42:34;95058.84;;;15.90;56.95
9225;BME280;4647;48.072;11.616;2023-05-01T13:45:37;95058.38;;;15.61;57.73
9225;BME280;4647;48.072;11.616;2023-05-01T13:48:09;95047.66;;;15.45;57.45
9225;BME280;4647;48.072;11.616;2023-05-01T13:50:40;95050.75;;;15.34;56.24
9225;BME280;4647;48.072;11.616;2023-05-01T13:53:09;95045.25;;;15.47;57.16
9225;BME280;4647;48.072;11.616;2023-05-01T13:55:45;95050.16;;;15.08;58.07
9225;BME280;4647;48.072;11.616;2023-05-01T13:58:17;95038.13;;;15.49;57.04
9225;BME280;4647;48.072;11.616;2023-05-01T14:00:48;95043.09;;;15.63;57.11